sensor_id;sensor_type;location;lat;lon;timestamp;P1;durP1;ratioP1;P2;durP2;ratioP2
77409;SDS011;66481;51.332;22.804;2023-08-07T00:01:29;2.15;;;0.50;;
77409;SDS011;66481;51.332;22.804;2023-08-07T00:05:31;0.73;;;0.50;;
77409;SDS011;66481;51.332;22.804;2023-08-07T00:09:31;0.68;;;0.40;;
77409;SDS011;66481;51.332;22.804;2023-08-07T00:13:32;1.42;;;0.60;;
77409;SDS011;66481;51.332;22.804;2023-08-07T00:17:33;1.10;;;0.57;;
77409;SDS011;66481;51.332;22.804;2023-08-07T00:21:34;0.55;;;0.40;;
77409;SDS011;66481;51.332;22.804;2023-08-07T00:25:36;3.08;;;0.75;;
77409;SDS011;66481;51.332;22.804;2023-08-07T00:29:37;1.95;;;0.60;;
77409;SDS011;66481;51.332;22.804;2023-08-07T00:33:39;1.52;;;0.50;;
77409;SDS011;66481;51.332;22.804;2023-08-07T00:37:40;0.90;;;0.70;;
77409;SDS011;66481;51.332;22.804;2023-08-07T00:41:40;1.05;;;0.50;;
77409;SDS011;66481;51.332;22.804;2023-08-07T00:45:42;1.65;;;0.60;;
77409;SDS011;66481;51.332;22.804;2023-08-07T00:49:45;0.80;;;0.60;;
77409;SDS011;66481;51.332;22.804;2023-08-07T00:53:47;1.65;;;0.70;;
77409;SDS011;66481;51.332;22.804;2023-08-07T00:57:49;0.68;;;0.55;;
77409;SDS011;66481;51.332;22.804;2023-08-07T01:01:50;1.30;;;0.50;;
77409;SDS011;66481;51.332;22.804;2023-08-07T01:05:51;1.27;;;0.60;;
77409;SDS011;66481;51.332;22.804;2023-08-07T01:09:52;0.38;;;0.30;;
77409;SDS011;66481;51.332;22.804;2023-08-07T01:18:29;0.43;;;0.43;;
77409;SDS011;66481;51.332;22.804;2023-08-07T01:22:31;0.68;;;0.68;;
77409;SDS011;66481;51.332;22.804;2023-08-07T01:26:32;0.35;;;0.25;;
77409;SDS011;66481;51.332;22.804;2023-08-07T01:34:37;0.45;;;0.35;;
77409;SDS011;66481;51.332;22.804;2023-08-07T01:38:41;0.75;;;0.50;;
77409;SDS011;66481;51.332;22.804;2023-08-07T01:42:44;0.75;;;0.55;;
77409;SDS011;66481;51.332;22.804;2023-08-07T01:46:45;1.00;;;0.50;;
77409;SDS011;66481;51.332;22.804;2023-08-07T01:50:46;0.90;;;0.60;;
77409;SDS011;66481;51.332;22.804;2023-08-07T01:54:47;1.30;;;0.70;;
77409;SDS011;66481;51.332;22.804;2023-08-07T01:58:48;0.90;;;0.60;;
77409;SDS011;66481;51.332;22.804;2023-08-07T02:02:49;1.08;;;0.70;;
77409;SDS011;66481;51.332;22.804;2023-08-07T02:06:50;2.65;;;0.77;;
77409;SDS011;66481;51.332;22.804;2023-08-07T02:10:51;1.42;;;0.63;;
77409;SDS011;66481;51.332;22.804;2023-08-07T02:14:52;1.85;;;0.68;;
77409;SDS011;66481;51.332;22.804;2023-08-07T02:18:53;1.15;;;0.82;;
77409;SDS011;66481;51.332;22.804;2023-08-07T02:22:53;1.10;;;0.70;;
77409;SDS011;66481;51.332;22.804;2023-08-07T02:26:54;0.90;;;0.75;;
77409;SDS011;66481;51.332;22.804;2023-08-07T02:30:56;1.00;;;0.60;;
77409;SDS011;66481;51.332;22.804;2023-08-07T02:34:57;0.68;;;0.43;;
77409;SDS011;66481;51.332;22.804;2023-08-07T02:38:59;4.10;;;0.70;;
77409;SDS011;66481;51.332;22.804;2023-08-07T02:43:00;3.08;;;0.75;;
77409;SDS011;66481;51.332;22.804;2023-08-07T02:47:01;3.25;;;0.68;;
77409;SDS011;66481;51.332;22.804;2023-08-07T02:51:02;0.82;;;0.60;;
77409;SDS011;66481;51.332;22.804;2023-08-07T02:55:03;1.05;;;0.50;;
77409;SDS011;66481;51.332;22.804;2023-08-07T02:59:05;0.68;;;0.55;;
77409;SDS011;66481;51.332;22.804;2023-08-07T03:03:06;1.65;;;0.50;;
77409;SDS011;66481;51.332;22.804;2023-08-07T03:07:07;2.15;;;0.60;;
77409;SDS011;66481;51.332;22.804;2023-08-07T03:11:08;1.35;;;0.70;;
77409;SDS011;66481;51.332;22.804;2023-08-07T03:15:09;1.20;;;0.77;;
77409;SDS011;66481;51.332;22.804;2023-08-07T03:19:10;2.22;;;0.90;;
77409;SDS011;66481;51.332;22.804;2023-08-07T03:23:11;0.90;;;0.77;;
77409;SDS011;66481;51.332;22.804;2023-08-07T03:27:12;1.23;;;0.90;;
77409;SDS011;66481;51.332;22.804;2023-08-07T03:31:13;1.25;;;0.88;;
77409;SDS011;66481;51.332;22.804;2023-08-07T03:35:13;2.58;;;0.90;;
77409;SDS011;66481;51.332;22.804;2023-08-07T03:39:14;1.35;;;0.88;;
77409;SDS011;66481;51.332;22.804;2023-08-07T03:43:15;1.25;;;0.80;;
77409;SDS011;66481;51.332;22.804;2023-08-07T03:47:16;1.27;;;0.80;;
77409;SDS011;66481;51.332;22.804;2023-08-07T03:51:17;1.45;;;0.80;;
77409;SDS011;66481;51.332;22.804;2023-08-07T03:55:18;2.28;;;0.90;;
77409;SDS011;66481;51.332;22.804;2023-08-07T03:59:19;2.08;;;0.90;;
77409;SDS011;66481;51.332;22.804;2023-08-07T04:03:20;1.73;;;0.75;;
77409;SDS011;66481;51.332;22.804;2023-08-07T04:07:21;1.55;;;0.77;;
77409;SDS011;66481;51.332;22.804;2023-08-07T04:11:22;1.83;;;0.80;;
77409;SDS011;66481;51.332;22.804;2023-08-07T04:15:23;1.80;;;0.80;;
77409;SDS011;66481;51.332;22.804;2023-08-07T04:19:24;1.30;;;0.90;;
77409;SDS011;66481;51.332;22.804;2023-08-07T04:23:25;1.13;;;0.77;;
77409;SDS011;66481;51.332;22.804;2023-08-07T04:27:26;2.03;;;1.38;;
77409;SDS011;66481;51.332;22.804;2023-08-07T04:31:27;1.88;;;0.80;;
77409;SDS011;66481;51.332;22.804;2023-08-07T04:35:29;1.20;;;0.75;;
77409;SDS011;66481;51.332;22.804;2023-08-07T04:39:31;2.00;;;0.80;;
77409;SDS011;66481;51.332;22.804;2023-08-07T04:43:32;2.53;;;0.80;;
77409;SDS011;66481;51.332;22.804;2023-08-07T04:47:34;1.58;;;0.90;;
77409;SDS011;66481;51.332;22.804;2023-08-07T04:51:36;2.58;;;0.80;;
77409;SDS011;66481;51.332;22.804;2023-08-07T04:55:36;2.25;;;0.93;;
77409;SDS011;66481;51.332;22.804;2023-08-07T04:59:38;1.00;;;0.80;;
77409;SDS011;66481;51.332;22.804;2023-08-07T05:03:39;2.50;;;0.90;;
77409;SDS011;66481;51.332;22.804;2023-08-07T05:07:40;1.42;;;1.27;;
77409;SDS011;66481;51.332;22.804;2023-08-07T05:11:41;2.17;;;1.00;;
77409;SDS011;66481;51.332;22.804;2023-08-07T05:15:42;1.27;;;0.80;;
77409;SDS011;66481;51.332;22.804;2023-08-07T05:19:44;1.40;;;0.98;;
77409;SDS011;66481;51.332;22.804;2023-08-07T05:23:45;1.33;;;0.90;;
77409;SDS011;66481;51.332;22.804;2023-08-07T05:27:46;2.58;;;0.98;;
77409;SDS011;66481;51.332;22.804;2023-08-07T05:31:47;1.30;;;1.00;;
77409;SDS011;66481;51.332;22.804;2023-08-07T05:35:49;3.58;;;1.10;;
77409;SDS011;66481;51.332;22.804;2023-08-07T05:39:51;1.33;;;0.93;;
77409;SDS011;66481;51.332;22.804;2023-08-07T05:43:51;1.20;;;0.90;;
77409;SDS011;66481;51.332;22.804;2023-08-07T05:47:52;1.33;;;0.90;;
77409;SDS011;66481;51.332;22.804;2023-08-07T05:51:53;1.40;;;1.00;;
77409;SDS011;66481;51.332;22.804;2023-08-07T05:55:54;2.00;;;1.20;;
77409;SDS011;66481;51.332;22.804;2023-08-07T05:59:56;1.35;;;0.90;;
77409;SDS011;66481;51.332;22.804;2023-08-07T06:03:57;1.73;;;1.10;;
77409;SDS011;66481;51.332;22.804;2023-08-07T06:07:58;3.65;;;1.02;;
77409;SDS011;66481;51.332;22.804;2023-08-07T06:11:59;1.08;;;0.93;;
77409;SDS011;66481;51.332;22.804;2023-08-07T06:16:00;1.90;;;1.08;;
77409;SDS011;66481;51.332;22.804;2023-08-07T06:20:01;2.38;;;1.20;;
77409;SDS011;66481;51.332;22.804;2023-08-07T06:24:05;2.95;;;1.35;;
77409;SDS011;66481;51.332;22.804;2023-08-07T06:28:07;1.65;;;1.00;;
77409;SDS011;66481;51.332;22.804;2023-08-07T06:32:08;2.00;;;1.20;;
77409;SDS011;66481;51.332;22.804;2023-08-07T06:36:11;3.72;;;1.15;;
77409;SDS011;66481;51.332;22.804;2023-08-07T06:40:13;1.67;;;1.00;;
77409;SDS011;66481;51.332;22.804;2023-08-07T06:44:14;1.70;;;1.02;;
77409;SDS011;66481;51.332;22.804;2023-08-07T06:48:15;2.88;;;1.27;;
77409;SDS011;66481;51.332;22.804;2023-08-07T06:52:17;1.48;;;0.98;;
77409;SDS011;66481;51.332;22.804;2023-08-07T06:56:18;2.70;;;1.30;;
77409;SDS011;66481;51.332;22.804;2023-08-07T07:00:19;2.28;;;1.27;;
77409;SDS011;66481;51.332;22.804;2023-08-07T07:04:20;2.40;;;1.30;;
77409;SDS011;66481;51.332;22.804;2023-08-07T07:08:21;2.30;;;1.38;;
77409;SDS011;66481;51.332;22.804;2023-08-07T07:12:24;4.38;;;1.45;;
77409;SDS011;66481;51.332;22.804;2023-08-07T07:16:25;1.70;;;1.20;;
77409;SDS011;66481;51.332;22.804;2023-08-07T07:20:26;2.22;;;1.27;;
77409;SDS011;66481;51.332;22.804;2023-08-07T07:24:27;2.83;;;1.33;;
77409;SDS011;66481;51.332;22.804;2023-08-07T07:28:28;2.22;;;1.17;;
77409;SDS011;66481;51.332;22.804;2023-08-07T07:32:29;2.55;;;1.60;;
77409;SDS011;66481;51.332;22.804;2023-08-07T07:36:30;1.55;;;1.27;;
77409;SDS011;66481;51.332;22.804;2023-08-07T07:40:31;1.85;;;1.00;;
77409;SDS011;66481;51.332;22.804;2023-08-07T07:44:32;2.42;;;1.20;;
77409;SDS011;66481;51.332;22.804;2023-08-07T07:48:35;2.38;;;1.30;;
77409;SDS011;66481;51.332;22.804;2023-08-07T07:52:37;2.53;;;1.35;;
77409;SDS011;66481;51.332;22.804;2023-08-07T07:56:38;2.13;;;1.25;;
77409;SDS011;66481;51.332;22.804;2023-08-07T08:00:38;2.78;;;1.52;;
77409;SDS011;66481;51.332;22.804;2023-08-07T08:04:40;1.85;;;1.20;;
77409;SDS011;66481;51.332;22.804;2023-08-07T08:08:41;2.95;;;1.50;;
77409;SDS011;66481;51.332;22.804;2023-08-07T08:12:42;2.08;;;1.80;;
77409;SDS011;66481;51.332;22.804;2023-08-07T08:16:43;2.20;;;1.23;;
77409;SDS011;66481;51.332;22.804;2023-08-07T08:20:44;1.48;;;1.15;;
77409;SDS011;66481;51.332;22.804;2023-08-07T08:24:45;1.40;;;0.95;;
77409;SDS011;66481;51.332;22.804;2023-08-07T08:32:48;2.90;;;1.30;;
77409;SDS011;66481;51.332;22.804;2023-08-07T08:36:49;1.52;;;1.00;;
77409;SDS011;66481;51.332;22.804;2023-08-07T08:40:51;1.73;;;1.10;;
77409;SDS011;66481;51.332;22.804;2023-08-07T08:44:54;2.10;;;1.40;;
77409;SDS011;66481;51.332;22.804;2023-08-07T08:48:57;1.90;;;1.17;;
77409;SDS011;66481;51.332;22.804;2023-08-07T08:52:59;1.50;;;1.00;;
77409;SDS011;66481;51.332;22.804;2023-08-07T08:57:06;2.20;;;1.10;;
77409;SDS011;66481;51.332;22.804;2023-08-07T09:01:08;2.33;;;1.30;;
77409;SDS011;66481;51.332;22.804;2023-08-07T09:05:10;2.10;;;1.20;;
77409;SDS011;66481;51.332;22.804;2023-08-07T09:09:11;2.90;;;1.30;;
77409;SDS011;66481;51.332;22.804;2023-08-07T09:13:14;2.30;;;1.40;;
77409;SDS011;66481;51.332;22.804;2023-08-07T09:17:18;2.47;;;1.30;;
77409;SDS011;66481;51.332;22.804;2023-08-07T09:21:21;1.23;;;0.93;;
77409;SDS011;66481;51.332;22.804;2023-08-07T09:25:32;1.20;;;0.95;;
77409;SDS011;66481;51.332;22.804;2023-08-07T09:29:34;2.50;;;1.20;;
77409;SDS011;66481;51.332;22.804;2023-08-07T09:33:35;1.63;;;1.00;;
77409;SDS011;66481;51.332;22.804;2023-08-07T09:37:36;1.70;;;1.40;;
77409;SDS011;66481;51.332;22.804;2023-08-07T09:41:39;1.33;;;1.10;;
77409;SDS011;66481;51.332;22.804;2023-08-07T09:45:40;1.85;;;1.33;;
77409;SDS011;66481;51.332;22.804;2023-08-07T09:49:41;1.45;;;1.20;;
77409;SDS011;66481;51.332;22.804;2023-08-07T09:53:43;2.55;;;1.15;;
77409;SDS011;66481;51.332;22.804;2023-08-07T09:57:44;1.50;;;1.10;;
77409;SDS011;66481;51.332;22.804;2023-08-07T10:01:45;2.05;;;1.20;;
77409;SDS011;66481;51.332;22.804;2023-08-07T10:05:46;1.80;;;1.10;;
77409;SDS011;66481;51.332;22.804;2023-08-07T10:09:47;1.35;;;0.90;;
77409;SDS011;66481;51.332;22.804;2023-08-07T10:13:49;2.00;;;1.13;;
77409;SDS011;66481;51.332;22.804;2023-08-07T10:17:50;1.90;;;1.00;;
77409;SDS011;66481;51.332;22.804;2023-08-07T10:21:51;1.48;;;1.00;;
77409;SDS011;66481;51.332;22.804;2023-08-07T10:29:55;2.17;;;1.20;;
77409;SDS011;66481;51.332;22.804;2023-08-07T10:33:59;4.55;;;1.80;;
77409;SDS011;66481;51.332;22.804;2023-08-07T10:38:05;1.73;;;1.00;;
77409;SDS011;66481;51.332;22.804;2023-08-07T10:42:08;1.70;;;1.25;;
77409;SDS011;66481;51.332;22.804;2023-08-07T10:46:14;2.17;;;1.35;;
77409;SDS011;66481;51.332;22.804;2023-08-07T10:50:34;1.65;;;1.00;;
77409;SDS011;66481;51.332;22.804;2023-08-07T10:54:54;2.25;;;1.00;;
77409;SDS011;66481;51.332;22.804;2023-08-07T10:58:55;2.03;;;0.98;;
77409;SDS011;66481;51.332;22.804;2023-08-07T11:02:57;2.08;;;1.08;;
77409;SDS011;66481;51.332;22.804;2023-08-07T11:06:59;1.73;;;1.05;;
77409;SDS011;66481;51.332;22.804;2023-08-07T11:11:03;1.30;;;1.00;;
77409;SDS011;66481;51.332;22.804;2023-08-07T11:15:11;1.55;;;1.25;;
77409;SDS011;66481;51.332;22.804;2023-08-07T11:19:14;2.03;;;1.35;;
77409;SDS011;66481;51.332;22.804;2023-08-07T11:23:22;2.30;;;1.20;;
77409;SDS011;66481;51.332;22.804;2023-08-07T11:27:25;1.83;;;1.15;;
77409;SDS011;66481;51.332;22.804;2023-08-07T11:31:26;1.52;;;1.08;;
77409;SDS011;66481;51.332;22.804;2023-08-07T11:35:27;3.58;;;1.17;;
77409;SDS011;66481;51.332;22.804;2023-08-07T11:39:30;1.27;;;1.02;;
77409;SDS011;66481;51.332;22.804;2023-08-07T11:43:32;2.28;;;1.00;;
77409;SDS011;66481;51.332;22.804;2023-08-07T11:47:34;2.55;;;1.10;;
77409;SDS011;66481;51.332;22.804;2023-08-07T11:51:36;3.10;;;1.25;;
77409;SDS011;66481;51.332;22.804;2023-08-07T11:55:45;1.77;;;1.13;;
77409;SDS011;66481;51.332;22.804;2023-08-07T11:59:54;1.73;;;1.20;;
77409;SDS011;66481;51.332;22.804;2023-08-07T12:04:08;2.35;;;0.98;;
77409;SDS011;66481;51.332;22.804;2023-08-07T12:08:10;1.70;;;1.05;;
77409;SDS011;66481;51.332;22.804;2023-08-07T12:12:11;1.50;;;1.00;;
77409;SDS011;66481;51.332;22.804;2023-08-07T12:16:13;1.83;;;0.80;;
77409;SDS011;66481;51.332;22.804;2023-08-07T12:20:18;1.65;;;1.10;;
77409;SDS011;66481;51.332;22.804;2023-08-07T12:24:19;3.30;;;1.00;;
77409;SDS011;66481;51.332;22.804;2023-08-07T12:28:20;1.73;;;0.80;;
77409;SDS011;66481;51.332;22.804;2023-08-07T12:32:21;1.70;;;0.82;;
77409;SDS011;66481;51.332;22.804;2023-08-07T12:36:23;3.00;;;1.10;;
77409;SDS011;66481;51.332;22.804;2023-08-07T12:40:24;2.13;;;0.80;;
77409;SDS011;66481;51.332;22.804;2023-08-07T12:44:25;2.05;;;1.13;;
77409;SDS011;66481;51.332;22.804;2023-08-07T12:48:26;2.28;;;0.88;;
77409;SDS011;66481;51.332;22.804;2023-08-07T12:52:29;1.50;;;1.00;;
77409;SDS011;66481;51.332;22.804;2023-08-07T12:56:30;1.67;;;0.90;;
77409;SDS011;66481;51.332;22.804;2023-08-07T13:00:31;1.58;;;1.17;;
77409;SDS011;66481;51.332;22.804;2023-08-07T13:04:33;3.35;;;1.00;;
77409;SDS011;66481;51.332;22.804;2023-08-07T13:08:35;1.90;;;1.10;;
77409;SDS011;66481;51.332;22.804;2023-08-07T13:12:36;2.30;;;0.80;;
77409;SDS011;66481;51.332;22.804;2023-08-07T13:16:38;3.30;;;1.10;;
77409;SDS011;66481;51.332;22.804;2023-08-07T13:20:40;2.55;;;1.08;;
77409;SDS011;66481;51.332;22.804;2023-08-07T13:24:40;1.30;;;0.90;;
77409;SDS011;66481;51.332;22.804;2023-08-07T13:28:41;3.92;;;1.20;;
77409;SDS011;66481;51.332;22.804;2023-08-07T13:32:43;1.67;;;1.17;;
77409;SDS011;66481;51.332;22.804;2023-08-07T13:36:44;3.28;;;1.40;;
77409;SDS011;66481;51.332;22.804;2023-08-07T13:40:44;1.52;;;1.00;;
77409;SDS011;66481;51.332;22.804;2023-08-07T13:44:46;1.80;;;1.30;;
77409;SDS011;66481;51.332;22.804;2023-08-07T13:48:47;3.03;;;1.33;;
77409;SDS011;66481;51.332;22.804;2023-08-07T13:52:48;1.85;;;1.40;;
77409;SDS011;66481;51.332;22.804;2023-08-07T13:56:50;2.80;;;1.23;;
77409;SDS011;66481;51.332;22.804;2023-08-07T14:00:51;3.08;;;1.30;;
77409;SDS011;66481;51.332;22.804;2023-08-07T14:04:52;3.58;;;1.55;;
77409;SDS011;66481;51.332;22.804;2023-08-07T14:08:53;2.15;;;1.15;;
77409;SDS011;66481;51.332;22.804;2023-08-07T14:12:56;3.00;;;1.48;;
77409;SDS011;66481;51.332;22.804;2023-08-07T14:16:57;2.05;;;1.38;;
77409;SDS011;66481;51.332;22.804;2023-08-07T14:21:01;2.45;;;1.30;;
77409;SDS011;66481;51.332;22.804;2023-08-07T14:25:02;2.65;;;1.20;;
77409;SDS011;66481;51.332;22.804;2023-08-07T14:29:04;3.97;;;1.15;;
77409;SDS011;66481;51.332;22.804;2023-08-07T14:33:06;1.67;;;1.20;;
77409;SDS011;66481;51.332;22.804;2023-08-07T14:37:07;3.17;;;1.13;;
77409;SDS011;66481;51.332;22.804;2023-08-07T14:41:09;1.52;;;1.10;;
77409;SDS011;66481;51.332;22.804;2023-08-07T14:45:11;1.90;;;1.10;;
77409;SDS011;66481;51.332;22.804;2023-08-07T14:49:11;1.70;;;1.10;;
77409;SDS011;66481;51.332;22.804;2023-08-07T14:53:12;2.25;;;0.90;;
77409;SDS011;66481;51.332;22.804;2023-08-07T14:57:13;1.60;;;1.20;;
77409;SDS011;66481;51.332;22.804;2023-08-07T15:01:15;2.58;;;1.20;;
77409;SDS011;66481;51.332;22.804;2023-08-07T15:05:17;1.90;;;1.17;;
77409;SDS011;66481;51.332;22.804;2023-08-07T15:09:19;1.80;;;1.20;;
77409;SDS011;66481;51.332;22.804;2023-08-07T15:13:22;2.10;;;1.50;;
77409;SDS011;66481;51.332;22.804;2023-08-07T15:17:24;2.30;;;1.30;;
77409;SDS011;66481;51.332;22.804;2023-08-07T15:21:26;3.25;;;1.30;;
77409;SDS011;66481;51.332;22.804;2023-08-07T15:25:27;1.70;;;1.15;;
77409;SDS011;66481;51.332;22.804;2023-08-07T15:29:28;3.53;;;1.30;;
77409;SDS011;66481;51.332;22.804;2023-08-07T15:33:31;2.50;;;1.10;;
77409;SDS011;66481;51.332;22.804;2023-08-07T15:37:32;2.60;;;1.20;;
77409;SDS011;66481;51.332;22.804;2023-08-07T15:41:33;1.58;;;1.10;;
77409;SDS011;66481;51.332;22.804;2023-08-07T15:45:34;2.28;;;1.02;;
77409;SDS011;66481;51.332;22.804;2023-08-07T15:49:35;1.73;;;1.00;;
77409;SDS011;66481;51.332;22.804;2023-08-07T15:53:37;2.55;;;1.38;;
77409;SDS011;66481;51.332;22.804;2023-08-07T15:57:39;1.75;;;1.15;;
77409;SDS011;66481;51.332;22.804;2023-08-07T16:01:40;1.90;;;1.20;;
77409;SDS011;66481;51.332;22.804;2023-08-07T16:05:42;2.75;;;1.35;;
77409;SDS011;66481;51.332;22.804;2023-08-07T16:09:44;3.45;;;1.15;;
77409;SDS011;66481;51.332;22.804;2023-08-07T16:13:45;3.50;;;1.38;;
77409;SDS011;66481;51.332;22.804;2023-08-07T16:17:47;3.33;;;1.55;;
77409;SDS011;66481;51.332;22.804;2023-08-07T16:21:48;2.22;;;1.50;;
77409;SDS011;66481;51.332;22.804;2023-08-07T16:25:49;2.28;;;1.40;;
77409;SDS011;66481;51.332;22.804;2023-08-07T16:29:50;2.80;;;1.70;;
77409;SDS011;66481;51.332;22.804;2023-08-07T16:33:52;2.05;;;1.38;;
77409;SDS011;66481;51.332;22.804;2023-08-07T16:37:54;2.75;;;1.55;;
77409;SDS011;66481;51.332;22.804;2023-08-07T16:41:56;2.30;;;1.30;;
77409;SDS011;66481;51.332;22.804;2023-08-07T16:45:57;3.20;;;1.50;;
77409;SDS011;66481;51.332;22.804;2023-08-07T16:49:59;2.50;;;1.60;;
77409;SDS011;66481;51.332;22.804;2023-08-07T16:54:01;2.38;;;1.48;;
77409;SDS011;66481;51.332;22.804;2023-08-07T16:58:03;2.33;;;1.55;;
77409;SDS011;66481;51.332;22.804;2023-08-07T17:02:06;3.13;;;1.27;;
77409;SDS011;66481;51.332;22.804;2023-08-07T17:06:07;2.65;;;1.80;;
77409;SDS011;66481;51.332;22.804;2023-08-07T17:10:09;2.42;;;1.55;;
77409;SDS011;66481;51.332;22.804;2023-08-07T17:14:13;2.33;;;1.45;;
77409;SDS011;66481;51.332;22.804;2023-08-07T17:18:15;4.22;;;1.63;;
77409;SDS011;66481;51.332;22.804;2023-08-07T17:22:16;3.05;;;2.10;;
77409;SDS011;66481;51.332;22.804;2023-08-07T17:26:18;4.88;;;2.17;;
77409;SDS011;66481;51.332;22.804;2023-08-07T17:30:19;2.67;;;1.50;;
77409;SDS011;66481;51.332;22.804;2023-08-07T17:34:21;2.83;;;1.63;;
77409;SDS011;66481;51.332;22.804;2023-08-07T17:38:23;2.38;;;1.70;;
77409;SDS011;66481;51.332;22.804;2023-08-07T17:42:24;3.15;;;1.80;;
77409;SDS011;66481;51.332;22.804;2023-08-07T17:46:25;4.72;;;2.00;;
77409;SDS011;66481;51.332;22.804;2023-08-07T17:50:28;4.47;;;1.65;;
77409;SDS011;66481;51.332;22.804;2023-08-07T17:54:29;2.58;;;1.67;;
77409;SDS011;66481;51.332;22.804;2023-08-07T17:58:30;3.15;;;1.70;;
77409;SDS011;66481;51.332;22.804;2023-08-07T18:02:32;2.80;;;2.38;;
77409;SDS011;66481;51.332;22.804;2023-08-07T18:06:34;2.60;;;1.90;;
77409;SDS011;66481;51.332;22.804;2023-08-07T18:10:36;3.95;;;1.90;;
77409;SDS011;66481;51.332;22.804;2023-08-07T18:14:37;3.75;;;2.05;;
77409;SDS011;66481;51.332;22.804;2023-08-07T18:18:39;3.05;;;1.70;;
77409;SDS011;66481;51.332;22.804;2023-08-07T18:22:40;3.17;;;1.75;;
77409;SDS011;66481;51.332;22.804;2023-08-07T18:26:41;3.75;;;1.88;;
77409;SDS011;66481;51.332;22.804;2023-08-07T18:30:44;3.30;;;1.88;;
77409;SDS011;66481;51.332;22.804;2023-08-07T18:34:45;3.42;;;1.90;;
77409;SDS011;66481;51.332;22.804;2023-08-07T18:38:46;5.10;;;2.25;;
77409;SDS011;66481;51.332;22.804;2023-08-07T18:42:47;3.33;;;2.03;;
77409;SDS011;66481;51.332;22.804;2023-08-07T18:46:52;4.75;;;2.72;;
77409;SDS011;66481;51.332;22.804;2023-08-07T18:50:53;4.60;;;2.83;;
77409;SDS011;66481;51.332;22.804;2023-08-07T18:54:57;4.60;;;2.55;;
77409;SDS011;66481;51.332;22.804;2023-08-07T18:58:58;4.50;;;2.83;;
77409;SDS011;66481;51.332;22.804;2023-08-07T19:03:03;6.75;;;3.60;;
77409;SDS011;66481;51.332;22.804;2023-08-07T19:07:05;5.22;;;3.30;;
77409;SDS011;66481;51.332;22.804;2023-08-07T19:11:07;5.32;;;3.15;;
77409;SDS011;66481;51.332;22.804;2023-08-07T19:15:08;4.45;;;3.30;;
77409;SDS011;66481;51.332;22.804;2023-08-07T19:19:13;4.72;;;3.33;;
77409;SDS011;66481;51.332;22.804;2023-08-07T19:23:15;5.20;;;3.28;;
77409;SDS011;66481;51.332;22.804;2023-08-07T19:27:18;3.58;;;2.90;;
77409;SDS011;66481;51.332;22.804;2023-08-07T19:31:19;4.22;;;2.85;;
77409;SDS011;66481;51.332;22.804;2023-08-07T19:35:21;3.40;;;2.10;;
77409;SDS011;66481;51.332;22.804;2023-08-07T19:39:23;3.78;;;2.30;;
77409;SDS011;66481;51.332;22.804;2023-08-07T19:43:25;3.63;;;2.40;;
77409;SDS011;66481;51.332;22.804;2023-08-07T19:47:26;3.58;;;2.50;;
77409;SDS011;66481;51.332;22.804;2023-08-07T19:51:28;4.47;;;2.33;;
77409;SDS011;66481;51.332;22.804;2023-08-07T19:55:33;3.38;;;2.22;;
77409;SDS011;66481;51.332;22.804;2023-08-07T19:59:35;4.47;;;2.13;;
77409;SDS011;66481;51.332;22.804;2023-08-07T20:03:37;3.08;;;1.92;;
77409;SDS011;66481;51.332;22.804;2023-08-07T20:07:41;3.60;;;2.20;;
77409;SDS011;66481;51.332;22.804;2023-08-07T20:11:43;2.60;;;1.83;;
77409;SDS011;66481;51.332;22.804;2023-08-07T20:15:44;4.07;;;2.22;;
77409;SDS011;66481;51.332;22.804;2023-08-07T20:19:45;3.47;;;2.30;;
77409;SDS011;66481;51.332;22.804;2023-08-07T20:23:47;3.25;;;2.22;;
77409;SDS011;66481;51.332;22.804;2023-08-07T20:27:48;3.42;;;2.33;;
77409;SDS011;66481;51.332;22.804;2023-08-07T20:31:49;3.58;;;2.45;;
77409;SDS011;66481;51.332;22.804;2023-08-07T20:35:54;5.25;;;2.58;;
77409;SDS011;66481;51.332;22.804;2023-08-07T20:39:55;5.45;;;2.83;;
77409;SDS011;66481;51.332;22.804;2023-08-07T20:43:57;4.13;;;2.75;;
77409;SDS011;66481;51.332;22.804;2023-08-07T20:47:58;5.50;;;3.35;;
77409;SDS011;66481;51.332;22.804;2023-08-07T20:52:00;4.28;;;3.05;;
77409;SDS011;66481;51.332;22.804;2023-08-07T20:56:04;4.25;;;3.22;;
77409;SDS011;66481;51.332;22.804;2023-08-07T21:00:06;6.63;;;3.22;;
77409;SDS011;66481;51.332;22.804;2023-08-07T21:04:10;5.13;;;3.00;;
77409;SDS011;66481;51.332;22.804;2023-08-07T21:08:11;6.65;;;3.60;;
77409;SDS011;66481;51.332;22.804;2023-08-07T21:12:12;9.45;;;3.92;;
77409;SDS011;66481;51.332;22.804;2023-08-07T21:16:13;5.35;;;3.63;;
77409;SDS011;66481;51.332;22.804;2023-08-07T21:20:17;5.72;;;2.92;;
77409;SDS011;66481;51.332;22.804;2023-08-07T21:24:19;4.47;;;3.00;;
77409;SDS011;66481;51.332;22.804;2023-08-07T21:28:21;4.47;;;2.85;;
77409;SDS011;66481;51.332;22.804;2023-08-07T21:32:22;4.10;;;2.90;;
77409;SDS011;66481;51.332;22.804;2023-08-07T21:36:26;3.85;;;2.72;;
77409;SDS011;66481;51.332;22.804;2023-08-07T21:40:27;4.25;;;3.10;;
77409;SDS011;66481;51.332;22.804;2023-08-07T21:44:28;3.53;;;2.53;;
77409;SDS011;66481;51.332;22.804;2023-08-07T21:48:30;3.28;;;2.65;;
77409;SDS011;66481;51.332;22.804;2023-08-07T21:52:31;3.50;;;2.60;;
77409;SDS011;66481;51.332;22.804;2023-08-07T21:56:32;7.15;;;3.05;;
77409;SDS011;66481;51.332;22.804;2023-08-07T22:00:33;5.15;;;2.92;;
77409;SDS011;66481;51.332;22.804;2023-08-07T22:04:34;3.85;;;2.80;;
77409;SDS011;66481;51.332;22.804;2023-08-07T22:08:35;4.00;;;2.60;;
77409;SDS011;66481;51.332;22.804;2023-08-07T22:12:36;3.63;;;2.85;;
77409;SDS011;66481;51.332;22.804;2023-08-07T22:16:40;4.13;;;2.95;;
77409;SDS011;66481;51.332;22.804;2023-08-07T22:20:41;5.75;;;2.45;;
77409;SDS011;66481;51.332;22.804;2023-08-07T22:24:42;3.83;;;2.42;;
77409;SDS011;66481;51.332;22.804;2023-08-07T22:28:43;3.63;;;2.60;;
77409;SDS011;66481;51.332;22.804;2023-08-07T22:32:44;3.40;;;2.60;;
77409;SDS011;66481;51.332;22.804;2023-08-07T22:36:45;3.80;;;2.72;;
77409;SDS011;66481;51.332;22.804;2023-08-07T22:40:46;3.85;;;2.47;;
77409;SDS011;66481;51.332;22.804;2023-08-07T22:44:47;4.60;;;2.72;;
77409;SDS011;66481;51.332;22.804;2023-08-07T22:48:48;3.80;;;2.60;;
77409;SDS011;66481;51.332;22.804;2023-08-07T22:52:49;5.03;;;2.70;;
77409;SDS011;66481;51.332;22.804;2023-08-07T22:56:50;4.25;;;2.85;;
77409;SDS011;66481;51.332;22.804;2023-08-07T23:00:51;4.75;;;2.75;;
77409;SDS011;66481;51.332;22.804;2023-08-07T23:04:52;4.13;;;2.95;;
77409;SDS011;66481;51.332;22.804;2023-08-07T23:08:54;5.03;;;2.88;;
77409;SDS011;66481;51.332;22.804;2023-08-07T23:12:54;4.85;;;2.67;;
77409;SDS011;66481;51.332;22.804;2023-08-07T23:16:56;3.03;;;2.30;;
77409;SDS011;66481;51.332;22.804;2023-08-07T23:20:58;3.85;;;2.88;;
77409;SDS011;66481;51.332;22.804;2023-08-07T23:24:59;3.85;;;3.03;;
77409;SDS011;66481;51.332;22.804;2023-08-07T23:29:03;3.72;;;2.70;;
77409;SDS011;66481;51.332;22.804;2023-08-07T23:33:04;4.53;;;2.92;;
77409;SDS011;66481;51.332;22.804;2023-08-07T23:37:06;6.18;;;3.25;;
77409;SDS011;66481;51.332;22.804;2023-08-07T23:41:07;4.53;;;3.45;;
77409;SDS011;66481;51.332;22.804;2023-08-07T23:45:08;3.97;;;3.10;;
77409;SDS011;66481;51.332;22.804;2023-08-07T23:49:09;3.58;;;2.70;;
77409;SDS011;66481;51.332;22.804;2023-08-07T23:53:10;3.13;;;2.70;;
77409;SDS011;66481;51.332;22.804;2023-08-07T23:57:11;3.60;;;2.65;;
